createdAt,value
2023-02-27T15:49:47.245Z,99.90
2023-02-27T15:52:13.861Z,96.90
2023-02-27T15:54:40.414Z,90.70
2023-02-27T15:57:07.549Z,88.30
2023-02-27T15:59:34.258Z,86.00
2023-02-27T16:02:04.022Z,89.00
2023-02-27T16:04:31.430Z,87.40
2023-02-27T16:06:58.071Z,87.00
2023-02-27T16:09:24.677Z,87.40
2023-02-27T16:11:51.283Z,86.80
2023-02-27T16:14:17.851Z,86.50
2023-02-27T16:16:44.615Z,86.20
2023-02-27T16:19:11.343Z,86.60
2023-02-27T16:21:38.184Z,85.90
2023-02-27T16:24:04.736Z,85.40
2023-02-27T16:26:31.985Z,85.10
2023-02-27T16:28:59.976Z,85.50
2023-02-27T16:31:26.735Z,85.00
2023-02-27T16:33:53.343Z,84.70
2023-02-27T16:36:20.291Z,84.20
2023-02-27T16:38:46.933Z,84.00
2023-02-27T16:41:15.866Z,83.90
2023-02-27T16:43:43.321Z,84.00
2023-02-27T16:46:10.160Z,83.50
2023-02-27T16:48:36.761Z,83.60
2023-02-27T16:51:03.792Z,83.10
2023-02-27T16:53:30.370Z,83.00
2023-02-27T16:55:57.142Z,83.20
2023-02-27T16:58:25.140Z,83.00
2023-02-27T17:00:51.765Z,82.80
2023-02-27T17:03:18.428Z,82.20
2023-02-27T17:05:45.195Z,82.30
2023-02-27T17:08:12.397Z,82.30
2023-02-27T17:10:39.115Z,82.30
2023-02-27T17:13:06.135Z,82.10
2023-02-27T17:15:32.812Z,81.90
2023-02-27T17:17:59.434Z,81.20
2023-02-27T17:20:27.999Z,81.00
2023-02-27T17:22:54.825Z,80.50
2023-02-27T17:25:21.717Z,80.70
2023-02-27T17:27:48.281Z,80.70
2023-02-27T17:30:14.887Z,80.10
2023-02-27T17:32:41.476Z,80.30
2023-02-27T17:35:08.849Z,79.90
2023-02-27T17:37:35.400Z,79.80
2023-02-27T17:40:04.329Z,79.90
2023-02-27T17:42:30.948Z,79.20
2023-02-27T17:44:57.885Z,79.30
2023-02-27T17:47:24.459Z,78.90
2023-02-27T17:49:51.162Z,78.90
2023-02-27T17:52:17.766Z,78.70
2023-02-27T17:54:44.454Z,78.90
2023-02-27T17:57:13.257Z,78.60
2023-02-27T17:59:40.412Z,78.50
2023-02-27T18:02:06.971Z,78.50
2023-02-27T18:04:33.546Z,77.80
2023-02-27T18:07:00.113Z,78.30
2023-02-27T18:09:26.852Z,78.30
2023-02-27T18:11:53.453Z,78.10
2023-02-27T18:14:20.037Z,77.70
2023-02-27T18:16:46.680Z,77.50
2023-02-27T18:19:14.323Z,77.50
2023-02-27T18:21:42.415Z,77.40
2023-02-27T18:24:09.130Z,77.40
2023-02-27T18:26:36.130Z,77.20
2023-02-27T18:29:03.121Z,77.20
2023-02-27T18:31:29.855Z,77.20
2023-02-27T18:33:56.496Z,77.20
2023-02-27T18:36:23.314Z,76.90
2023-02-27T18:38:49.889Z,76.30
2023-02-27T18:41:16.495Z,76.50
2023-02-27T18:43:43.122Z,76.40
2023-02-27T18:46:09.761Z,76.60
2023-02-27T18:48:36.440Z,77.30
2023-02-27T18:51:04.723Z,77.10
2023-02-27T18:53:31.346Z,77.00
2023-02-27T18:55:57.950Z,77.40
2023-02-27T18:58:24.550Z,77.40
2023-02-27T19:00:51.446Z,77.50
2023-02-27T19:03:18.700Z,78.20
2023-02-27T19:05:45.425Z,77.70
2023-02-27T19:08:12.040Z,78.10
2023-02-27T19:10:38.596Z,78.70
2023-02-27T19:13:05.473Z,78.90
2023-02-27T19:15:32.894Z,79.00
2023-02-27T19:17:59.528Z,79.00
2023-02-27T19:20:26.165Z,78.60
2023-02-27T19:22:53.501Z,78.80
2023-02-27T19:25:20.096Z,78.80
2023-02-27T19:27:46.830Z,79.50
2023-02-27T19:30:13.509Z,79.50
2023-02-27T19:32:40.116Z,79.70
2023-02-27T19:35:06.741Z,79.90
2023-02-27T19:37:33.329Z,79.80
2023-02-27T19:39:59.943Z,79.80
2023-02-27T19:42:26.551Z,79.70
2023-02-27T19:44:53.147Z,79.60
2023-02-27T19:47:19.778Z,79.70
2023-02-27T19:49:46.944Z,79.80
2023-02-27T19:52:13.568Z,80.00
2023-02-27T19:54:40.904Z,80.20
2023-02-27T19:57:07.671Z,80.40
2023-02-27T19:59:34.255Z,80.00
2023-02-27T20:02:00.846Z,79.50
2023-02-27T20:04:27.697Z,79.90
2023-02-27T20:06:54.529Z,79.90
2023-02-27T20:09:21.121Z,79.70
2023-02-27T20:11:47.714Z,79.50
2023-02-27T20:14:14.327Z,80.10
